createdAt,value
2018-11-14T00:00:22.714Z,3.01
2018-11-14T00:02:51.849Z,2.99
2018-11-14T00:05:20.690Z,2.83
2018-11-14T00:07:49.653Z,3.05
2018-11-14T00:10:19.240Z,2.96
2018-11-14T00:12:47.887Z,3.03
2018-11-14T00:15:18.263Z,3.12
2018-11-14T00:17:48.022Z,3.32
2018-11-14T00:20:17.030Z,3.20
2018-11-14T00:22:47.357Z,3.18
2018-11-14T00:25:16.259Z,3.12
2018-11-14T00:27:44.951Z,2.95
2018-11-14T00:30:19.573Z,2.92
2018-11-14T00:32:48.338Z,2.89
2018-11-14T00:35:17.042Z,2.86
2018-11-14T00:37:46.370Z,2.83
2018-11-14T00:40:15.893Z,2.76
2018-11-14T00:42:45.387Z,2.77
2018-11-14T00:45:17.064Z,2.71
2018-11-14T00:47:46.967Z,2.78
2018-11-14T00:50:16.724Z,2.86
2018-11-14T00:52:46.750Z,2.84
2018-11-14T00:55:16.966Z,2.86
2018-11-14T00:57:46.974Z,3.00
2018-11-14T01:00:18.717Z,2.85
2018-11-14T01:02:48.102Z,2.74
2018-11-14T01:05:17.341Z,2.76
2018-11-14T01:07:46.347Z,2.80
2018-11-14T01:10:16.902Z,2.76
2018-11-14T01:12:46.596Z,2.72
2018-11-14T01:15:17.558Z,2.73
2018-11-14T01:17:46.632Z,2.82
2018-11-14T01:20:16.673Z,2.77
2018-11-14T01:22:46.014Z,2.73
2018-11-14T01:25:15.732Z,2.89
2018-11-14T01:27:44.971Z,2.96
2018-11-14T01:30:17.871Z,2.89
2018-11-14T01:32:47.436Z,2.87
2018-11-14T01:35:16.630Z,2.84
2018-11-14T01:37:45.617Z,2.91
2018-11-14T01:40:15.973Z,2.97
2018-11-14T01:42:45.922Z,2.95
2018-11-14T01:45:14.791Z,2.95
2018-11-14T01:47:43.401Z,2.92
2018-11-14T01:50:12.348Z,2.88
2018-11-14T01:52:41.403Z,2.84
2018-11-14T01:55:11.864Z,2.93
2018-11-14T01:57:40.673Z,2.95
2018-11-14T02:00:11.706Z,2.84
2018-11-14T02:02:41.005Z,2.87
2018-11-14T02:05:10.786Z,3.03
2018-11-14T02:07:39.530Z,3.06
2018-11-14T02:10:09.938Z,3.26
2018-11-14T02:12:39.463Z,3.07
2018-11-14T02:15:10.286Z,2.92
2018-11-14T02:17:39.498Z,2.91
2018-11-14T02:20:08.587Z,2.94
2018-11-14T02:22:37.580Z,2.95
2018-11-14T02:25:07.298Z,2.91
2018-11-14T02:27:36.171Z,2.87
2018-11-14T02:30:05.978Z,2.86
2018-11-14T02:32:34.592Z,2.90
2018-11-14T02:35:03.172Z,3.14
2018-11-14T02:37:32.185Z,2.96
2018-11-14T02:40:00.901Z,2.93
2018-11-14T02:42:29.778Z,2.93
2018-11-14T02:44:58.613Z,2.86
2018-11-14T02:47:27.830Z,2.91
2018-11-14T02:49:56.761Z,2.74
2018-11-14T02:52:25.809Z,2.66
2018-11-14T02:54:54.819Z,2.88
2018-11-14T02:57:24.026Z,2.86
2018-11-14T02:59:53.007Z,2.75
2018-11-14T03:02:21.838Z,2.69
2018-11-14T03:04:50.665Z,2.70
2018-11-14T03:07:19.381Z,2.75
2018-11-14T03:09:48.026Z,2.68
2018-11-14T03:12:16.978Z,2.72
2018-11-14T03:14:46.002Z,2.76
2018-11-14T03:17:15.255Z,2.65
2018-11-14T03:19:44.129Z,2.62
2018-11-14T03:22:13.243Z,2.66
2018-11-14T03:24:42.192Z,2.64
2018-11-14T03:27:11.218Z,2.94
2018-11-14T03:29:40.544Z,3.04
2018-11-14T03:32:09.297Z,2.96
2018-11-14T03:34:38.122Z,2.79
2018-11-14T03:37:07.614Z,2.81
2018-11-14T03:39:36.245Z,2.85
2018-11-14T03:42:05.062Z,2.85
2018-11-14T03:44:33.964Z,2.73
2018-11-14T03:47:02.753Z,2.83
2018-11-14T03:49:31.518Z,2.91
2018-11-14T03:52:00.371Z,2.98
2018-11-14T03:54:29.229Z,3.26
2018-11-14T03:56:58.301Z,3.43
2018-11-14T03:59:27.228Z,3.39
2018-11-14T04:01:55.981Z,3.33
2018-11-14T04:04:24.985Z,3.53
2018-11-14T04:06:53.646Z,3.70
2018-11-14T04:09:22.440Z,3.68
2018-11-14T04:11:51.301Z,3.75
2018-11-14T04:14:20.586Z,3.64
2018-11-14T04:16:49.526Z,3.55
2018-11-14T04:19:18.275Z,3.21
2018-11-14T04:21:47.486Z,3.30
2018-11-14T04:24:16.687Z,3.09
2018-11-14T04:26:45.524Z,2.99
2018-11-14T04:29:14.353Z,2.97
2018-11-14T04:31:43.522Z,3.18
2018-11-14T04:34:12.302Z,3.26
2018-11-14T04:36:41.328Z,3.29
2018-11-14T04:39:11.109Z,3.23
2018-11-14T04:41:39.806Z,3.17
2018-11-14T04:44:09.023Z,3.17
2018-11-14T04:46:37.970Z,3.21
2018-11-14T04:49:06.779Z,3.23
2018-11-14T04:51:35.687Z,3.20
2018-11-14T04:54:04.863Z,3.24
2018-11-14T04:56:33.653Z,3.32
2018-11-14T04:59:02.974Z,3.37
2018-11-14T05:01:31.733Z,3.56
2018-11-14T05:04:00.763Z,3.71
2018-11-14T05:06:29.673Z,3.83
2018-11-14T05:08:58.280Z,3.87
2018-11-14T05:11:26.904Z,3.64
2018-11-14T05:13:56.903Z,3.58
2018-11-14T05:16:25.922Z,3.62
2018-11-14T05:18:54.703Z,3.71
2018-11-14T05:21:23.517Z,3.58
2018-11-14T05:23:52.396Z,3.48
2018-11-14T05:26:21.374Z,3.48
2018-11-14T05:28:50.657Z,3.71
2018-11-14T05:31:19.480Z,3.75
2018-11-14T05:33:48.579Z,3.82
2018-11-14T05:36:17.446Z,3.89
2018-11-14T05:38:46.175Z,3.88
2018-11-14T05:41:14.884Z,4.03
2018-11-14T05:43:43.843Z,4.18
2018-11-14T05:46:12.637Z,4.03
2018-11-14T05:48:41.527Z,3.98
2018-11-14T05:51:10.425Z,3.91
2018-11-14T05:53:39.425Z,3.85
2018-11-14T05:56:08.394Z,3.77
2018-11-14T05:58:37.657Z,3.77
2018-11-14T06:01:06.538Z,3.88
2018-11-14T06:03:35.589Z,4.04
2018-11-14T06:06:04.725Z,4.12
2018-11-14T06:08:33.378Z,4.31
2018-11-14T06:11:02.075Z,4.49
2018-11-14T06:13:31.274Z,4.75
2018-11-14T06:16:00.347Z,4.99
2018-11-14T06:18:29.015Z,5.11
2018-11-14T06:20:58.152Z,5.20
2018-11-14T06:23:26.841Z,5.48
2018-11-14T06:25:55.818Z,5.61
2018-11-14T06:28:25.340Z,5.92
2018-11-14T06:30:54.037Z,6.02
2018-11-14T06:33:22.745Z,6.15
2018-11-14T06:35:51.737Z,6.25
2018-11-14T06:38:20.394Z,6.34
2018-11-14T06:40:49.067Z,6.54
2018-11-14T06:43:18.374Z,6.70
2018-11-14T06:45:47.230Z,6.74
2018-11-14T06:48:16.121Z,6.80
2018-11-14T06:50:45.063Z,6.84
2018-11-14T06:53:13.922Z,7.05
2018-11-14T06:55:42.934Z,7.19
2018-11-14T06:58:12.119Z,7.34
2018-11-14T07:00:40.772Z,7.52
2018-11-14T07:03:09.605Z,7.50
2018-11-14T07:05:38.223Z,7.55
2018-11-14T07:08:07.235Z,7.52
2018-11-14T07:10:37.027Z,7.25
2018-11-14T07:13:11.406Z,7.43
2018-11-14T07:15:41.361Z,7.69
2018-11-14T07:18:11.307Z,7.80
2018-11-14T07:20:42.778Z,8.01
2018-11-14T07:23:11.881Z,8.14
2018-11-14T07:25:40.589Z,8.17
2018-11-14T07:28:09.580Z,8.51
2018-11-14T07:30:38.512Z,8.52
2018-11-14T07:33:08.957Z,8.85
2018-11-14T07:35:37.637Z,8.91
2018-11-14T07:38:41.018Z,9.10
2018-11-14T07:41:11.265Z,9.01
2018-11-14T07:43:40.593Z,9.35
2018-11-14T07:46:10.215Z,9.36
2018-11-14T07:48:39.623Z,9.40
2018-11-14T07:51:09.113Z,9.51
2018-11-14T07:53:37.861Z,9.52
2018-11-14T07:56:07.233Z,9.76
2018-11-14T07:58:36.623Z,9.90
2018-11-14T08:01:05.894Z,9.95
2018-11-14T08:03:34.608Z,10.09
2018-11-14T08:06:03.633Z,10.20
2018-11-14T08:08:32.577Z,10.21
2018-11-14T08:11:01.130Z,10.30
2018-11-14T08:13:31.358Z,10.38
2018-11-14T08:16:01.346Z,10.32
2018-11-14T08:18:30.500Z,10.53
2018-11-14T08:21:00.344Z,10.65
2018-11-14T08:23:29.111Z,10.65
2018-11-14T08:25:58.205Z,10.77
2018-11-14T08:28:27.562Z,10.59
2018-11-14T08:30:56.527Z,10.73
2018-11-14T08:33:25.401Z,10.92
2018-11-14T08:35:54.428Z,11.03
2018-11-14T08:38:23.166Z,11.11
2018-11-14T08:40:51.879Z,11.25
2018-11-14T08:43:21.079Z,11.37
2018-11-14T08:45:49.929Z,11.47
2018-11-14T08:48:19.163Z,11.42
2018-11-14T08:50:48.468Z,11.42
2018-11-14T08:53:17.467Z,11.45
2018-11-14T08:55:46.432Z,11.44
2018-11-14T08:58:15.406Z,11.78
2018-11-14T09:00:44.521Z,11.62
2018-11-14T09:03:14.278Z,11.87
2018-11-14T09:05:43.266Z,11.76
2018-11-14T09:08:11.995Z,11.98
2018-11-14T09:10:40.754Z,11.82
2018-11-14T09:13:13.694Z,11.81
2018-11-14T09:15:43.016Z,11.57
2018-11-14T09:18:11.817Z,11.88
2018-11-14T09:20:40.842Z,11.81
2018-11-14T09:23:09.810Z,11.86
2018-11-14T09:25:38.682Z,11.59
2018-11-14T09:28:07.510Z,11.61
2018-11-14T09:30:36.389Z,11.55
2018-11-14T09:33:05.643Z,11.25
2018-11-14T09:35:34.759Z,11.23
2018-11-14T09:38:03.382Z,11.59
2018-11-14T09:40:32.030Z,11.59
2018-11-14T09:43:00.845Z,11.53
2018-11-14T09:45:31.129Z,11.68
2018-11-14T09:47:59.972Z,11.68
2018-11-14T09:50:30.530Z,11.80
2018-11-14T09:53:06.168Z,11.56
2018-11-14T09:55:35.082Z,11.60
2018-11-14T09:58:03.824Z,11.45
2018-11-14T10:00:34.427Z,11.61
2018-11-14T10:03:13.617Z,11.29
2018-11-14T10:05:42.655Z,11.39
2018-11-14T10:08:11.621Z,11.51
2018-11-14T10:10:40.382Z,11.61
2018-11-14T10:13:09.264Z,11.59
2018-11-14T10:15:38.195Z,11.62
2018-11-14T10:18:07.045Z,11.48
2018-11-14T10:20:36.106Z,11.33
2018-11-14T10:23:05.031Z,11.38
2018-11-14T10:25:33.785Z,11.26
2018-11-14T10:28:02.628Z,11.34
2018-11-14T10:30:31.479Z,10.87
2018-11-14T10:33:00.554Z,10.92
2018-11-14T10:35:29.555Z,10.93
2018-11-14T10:37:58.328Z,10.25
2018-11-14T10:40:28.187Z,10.62
2018-11-14T10:42:57.258Z,10.50
2018-11-14T10:45:26.782Z,10.25
2018-11-14T10:47:55.639Z,10.48
2018-11-14T10:50:25.960Z,10.32
2018-11-14T10:52:54.697Z,10.30
2018-11-14T10:55:24.165Z,10.34
2018-11-14T10:57:53.657Z,10.32
2018-11-14T11:00:28.826Z,10.26
2018-11-14T11:03:03.674Z,10.38
2018-11-14T11:05:44.275Z,10.10
2018-11-14T11:08:19.505Z,10.31
2018-11-14T11:11:51.286Z,10.16
2018-11-14T11:14:25.535Z,10.08
2018-11-14T11:16:59.735Z,9.98
2018-11-14T11:19:30.038Z,10.23
2018-11-14T11:21:59.074Z,10.03
2018-11-14T11:24:28.048Z,10.21
2018-11-14T11:26:56.980Z,10.29
2018-11-14T11:29:25.848Z,10.11
2018-11-14T11:31:54.534Z,10.23
2018-11-14T11:34:23.766Z,10.23
2018-11-14T11:36:52.406Z,10.35
2018-11-14T11:39:21.045Z,10.28
2018-11-14T11:41:49.866Z,10.08
2018-11-14T11:44:18.773Z,10.20
2018-11-14T11:46:47.679Z,10.17
2018-11-14T11:49:16.787Z,10.31
2018-11-14T11:51:45.457Z,10.19
2018-11-14T11:54:14.178Z,10.10
2018-11-14T11:56:43.186Z,10.21
2018-11-14T11:59:11.919Z,10.18
2018-11-14T12:01:40.863Z,9.97
2018-11-14T12:04:09.770Z,10.03
2018-11-14T12:06:38.400Z,9.97
2018-11-14T12:09:10.073Z,9.74
2018-11-14T12:11:38.842Z,9.85
2018-11-14T12:14:07.942Z,9.71
2018-11-14T12:16:37.089Z,9.77
2018-11-14T12:19:06.274Z,9.82
2018-11-14T12:21:35.329Z,9.88
2018-11-14T12:24:04.841Z,9.95
2018-11-14T12:26:33.924Z,9.90
2018-11-14T12:29:02.930Z,10.07
2018-11-14T12:31:32.035Z,10.07
2018-11-14T12:34:01.011Z,9.99
2018-11-14T12:36:29.654Z,10.04
2018-11-14T12:38:58.402Z,9.96
2018-11-14T12:41:27.192Z,9.92
2018-11-14T12:43:55.834Z,9.85
2018-11-14T12:46:25.292Z,9.58
2018-11-14T12:48:54.364Z,9.81
2018-11-14T12:51:23.564Z,9.43
2018-11-14T12:53:52.898Z,9.70
2018-11-14T12:56:21.542Z,9.70
2018-11-14T12:58:50.333Z,9.81
2018-11-14T13:01:19.740Z,9.71
2018-11-14T13:03:48.346Z,9.79
2018-11-14T13:06:17.102Z,9.97
2018-11-14T13:08:46.131Z,9.87
2018-11-14T13:11:14.997Z,10.22
2018-11-14T13:13:45.762Z,10.18
2018-11-14T13:16:15.286Z,10.01
2018-11-14T13:18:44.446Z,10.07
2018-11-14T13:21:13.420Z,9.87
2018-11-14T13:23:42.678Z,9.89
2018-11-14T13:26:11.644Z,9.96
2018-11-14T13:28:40.213Z,9.42
2018-11-14T13:31:09.482Z,9.68
2018-11-14T13:33:38.106Z,9.77
2018-11-14T13:36:06.722Z,9.73
2018-11-14T13:38:35.653Z,9.79
2018-11-14T13:41:04.497Z,9.63
2018-11-14T13:43:33.460Z,9.81
2018-11-14T13:46:02.296Z,9.89
2018-11-14T13:48:30.915Z,9.89
2018-11-14T13:50:59.889Z,9.77
2018-11-14T13:53:28.966Z,9.85
2018-11-14T13:55:58.085Z,9.98
2018-11-14T13:58:26.931Z,9.91
2018-11-14T14:00:56.023Z,9.85
2018-11-14T14:03:24.601Z,9.98
2018-11-14T14:05:53.222Z,9.63
2018-11-14T14:08:22.274Z,9.85
2018-11-14T14:10:51.142Z,9.63
2018-11-14T14:13:20.144Z,9.98
2018-11-14T14:15:49.267Z,9.73
2018-11-14T14:18:18.257Z,9.54
2018-11-14T14:20:47.324Z,9.53
2018-11-14T14:23:16.534Z,9.70
2018-11-14T14:25:45.444Z,9.61
2018-11-14T14:28:14.495Z,9.70
2018-11-14T14:30:43.765Z,9.77
2018-11-14T14:33:12.466Z,10.03
2018-11-14T14:35:41.181Z,9.90
2018-11-14T14:38:10.048Z,9.90
2018-11-14T14:40:39.095Z,9.94
2018-11-14T14:43:08.121Z,10.05
2018-11-14T14:45:37.290Z,10.05
2018-11-14T14:48:06.395Z,10.09
2018-11-14T14:50:35.614Z,10.21
2018-11-14T14:53:04.749Z,10.15
2018-11-14T14:55:33.765Z,9.98
2018-11-14T14:58:02.715Z,9.88
2018-11-14T15:00:31.670Z,9.94
2018-11-14T15:03:00.291Z,9.84
2018-11-14T15:05:29.167Z,9.66
2018-11-14T15:07:58.174Z,9.66
2018-11-14T15:10:27.006Z,9.43
2018-11-14T15:12:55.821Z,9.39
2018-11-14T15:15:24.813Z,9.43
2018-11-14T15:17:53.605Z,9.39
2018-11-14T15:20:23.805Z,9.38
2018-11-14T15:22:52.875Z,9.63
2018-11-14T15:25:22.943Z,9.29
2018-11-14T15:27:52.130Z,9.40
2018-11-14T15:30:24.990Z,9.31
2018-11-14T15:32:54.003Z,9.05
2018-11-14T15:35:22.931Z,9.33
2018-11-14T15:37:51.673Z,9.31
2018-11-14T15:40:22.017Z,9.20
2018-11-14T15:42:51.019Z,9.12
2018-11-14T15:45:21.488Z,9.14
2018-11-14T15:47:50.741Z,8.93
2018-11-14T15:50:21.922Z,9.08
2018-11-14T15:52:52.130Z,9.17
2018-11-14T15:55:21.673Z,8.91
2018-11-14T15:57:50.857Z,9.01
2018-11-14T16:00:24.278Z,9.07
2018-11-14T16:02:52.981Z,9.07
2018-11-14T16:05:22.922Z,8.95
2018-11-14T16:07:53.320Z,9.14
2018-11-14T16:10:23.242Z,9.14
2018-11-14T16:12:51.970Z,9.41
2018-11-14T16:15:22.768Z,9.10
2018-11-14T16:17:51.677Z,9.19
2018-11-14T16:20:22.925Z,9.03
2018-11-14T16:22:51.941Z,8.92
2018-11-14T16:25:22.431Z,9.11
2018-11-14T16:27:52.829Z,8.98
2018-11-14T16:30:36.744Z,8.86
2018-11-14T16:33:06.890Z,9.13
2018-11-14T16:35:35.556Z,8.88
2018-11-14T16:38:04.386Z,8.80
2018-11-14T16:40:34.367Z,8.82
2018-11-14T16:43:05.592Z,8.74
2018-11-14T16:45:35.257Z,8.80
2018-11-14T16:48:04.060Z,8.69
2018-11-14T16:50:32.818Z,8.73
2018-11-14T16:53:02.210Z,8.74
2018-11-14T16:55:31.408Z,8.75
2018-11-14T16:58:00.301Z,8.77
2018-11-14T17:00:31.211Z,8.77
2018-11-14T17:03:00.047Z,8.82
2018-11-14T17:05:29.837Z,8.72
2018-11-14T17:07:59.111Z,8.84
2018-11-14T17:10:27.881Z,8.67
2018-11-14T17:12:58.109Z,8.66
2018-11-14T17:15:27.961Z,8.60
2018-11-14T17:17:56.903Z,8.47
2018-11-14T17:20:25.531Z,8.46
2018-11-14T17:22:55.206Z,8.48
2018-11-14T17:25:24.286Z,8.38
2018-11-14T17:27:53.011Z,8.49
2018-11-14T17:30:24.272Z,8.47
2018-11-14T17:32:53.380Z,8.66
2018-11-14T17:35:22.179Z,8.46
2018-11-14T17:37:52.388Z,8.68
2018-11-14T17:40:24.447Z,8.67
2018-11-14T17:42:54.051Z,8.80
2018-11-14T17:45:25.916Z,8.85
2018-11-14T17:47:55.115Z,8.86
2018-11-14T17:50:30.392Z,8.90
2018-11-14T17:53:00.267Z,8.95
2018-11-14T17:55:29.711Z,9.05
2018-11-14T17:57:58.974Z,9.01
2018-11-14T18:00:28.954Z,8.88
2018-11-14T18:02:57.941Z,9.04
2018-11-14T18:05:28.370Z,9.18
2018-11-14T18:07:57.598Z,8.91
2018-11-14T18:10:27.824Z,8.96
2018-11-14T18:12:58.046Z,8.86
2018-11-14T18:15:26.925Z,8.97
2018-11-14T18:17:56.742Z,8.88
2018-11-14T18:20:27.952Z,9.09
2018-11-14T18:22:57.147Z,9.18
2018-11-14T18:25:26.283Z,9.11
2018-11-14T18:27:55.196Z,9.02
2018-11-14T18:30:25.175Z,9.12
2018-11-14T18:32:54.630Z,9.24
2018-11-14T18:35:24.013Z,9.21
2018-11-14T18:37:53.642Z,9.27
2018-11-14T18:40:23.662Z,9.41
2018-11-14T18:42:52.474Z,9.13
2018-11-14T18:45:24.460Z,9.03
2018-11-14T18:47:53.903Z,9.03
2018-11-14T18:50:23.378Z,9.36
2018-11-14T18:52:52.706Z,9.29
2018-11-14T18:55:22.719Z,9.31
2018-11-14T18:57:51.721Z,9.34
2018-11-14T19:00:22.570Z,9.36
2018-11-14T19:02:51.279Z,9.42
2018-11-14T19:05:20.749Z,9.39
2018-11-14T19:07:50.133Z,9.42
2018-11-14T19:10:20.361Z,9.49
2018-11-14T19:12:49.874Z,9.50
2018-11-14T19:15:20.912Z,9.31
2018-11-14T19:17:50.014Z,9.37
2018-11-14T19:20:21.139Z,9.34
2018-11-14T19:22:50.043Z,9.48
2018-11-14T19:25:20.286Z,9.50
2018-11-14T19:27:49.751Z,9.45
2018-11-14T19:30:20.986Z,9.49
2018-11-14T19:32:50.825Z,9.65
2018-11-14T19:35:19.804Z,9.56
2018-11-14T19:37:49.955Z,9.71
2018-11-14T19:40:20.599Z,9.68
2018-11-14T19:42:50.769Z,9.68
2018-11-14T19:45:20.818Z,9.73
2018-11-14T19:47:49.703Z,9.70
2018-11-14T19:50:19.813Z,9.79
2018-11-14T19:52:49.335Z,9.58
2018-11-14T19:55:19.549Z,9.66
2018-11-14T19:57:49.422Z,9.53
2018-11-14T20:00:21.383Z,9.47
2018-11-14T20:02:50.398Z,9.67
2018-11-14T20:05:19.830Z,9.50
2018-11-14T20:07:48.837Z,9.61
2018-11-14T20:10:20.003Z,9.63
2018-11-14T20:12:49.747Z,9.70
2018-11-14T20:15:19.883Z,9.58
2018-11-14T20:17:49.342Z,9.57
2018-11-14T20:20:19.733Z,9.69
2018-11-14T20:22:48.873Z,9.69
2018-11-14T20:25:17.737Z,9.48
2018-11-14T20:27:46.739Z,9.64
2018-11-14T20:30:21.575Z,9.62
2018-11-14T20:32:51.307Z,9.72
2018-11-14T20:35:21.264Z,9.74
2018-11-14T20:37:50.200Z,9.77
2018-11-14T20:40:20.584Z,9.77
2018-11-14T20:42:50.484Z,9.75
2018-11-14T20:45:23.763Z,9.79
2018-11-14T20:47:52.486Z,9.72
2018-11-14T20:50:22.450Z,9.77
2018-11-14T20:52:53.817Z,9.63
2018-11-14T20:55:22.910Z,9.74
2018-11-14T20:57:52.426Z,9.71
2018-11-14T21:00:25.598Z,9.72
2018-11-14T21:02:54.271Z,9.74
2018-11-14T21:05:23.738Z,9.71
2018-11-14T21:07:52.471Z,9.62
2018-11-14T21:10:23.873Z,9.45
2018-11-14T21:12:53.505Z,9.45
2018-11-14T21:15:23.780Z,9.41
2018-11-14T21:17:53.644Z,9.51
2018-11-14T21:20:22.399Z,9.42
2018-11-14T21:22:51.829Z,9.49
2018-11-14T21:25:21.787Z,9.44
2018-11-14T21:27:50.966Z,9.38
2018-11-14T21:30:20.966Z,9.46
2018-11-14T21:32:50.263Z,9.46
2018-11-14T21:35:22.438Z,9.44
2018-11-14T21:37:52.817Z,9.53
2018-11-14T21:40:22.031Z,9.56
2018-11-14T21:42:51.348Z,9.56
2018-11-14T21:45:21.888Z,9.34
2018-11-14T21:47:55.934Z,9.56
2018-11-14T21:50:26.111Z,9.49
2018-11-14T21:52:54.817Z,9.47
2018-11-14T21:55:24.087Z,9.32
2018-11-14T21:57:53.222Z,9.42
2018-11-14T22:00:23.874Z,9.46
2018-11-14T22:02:54.052Z,9.38
2018-11-14T22:05:23.438Z,9.32
2018-11-14T22:07:52.354Z,9.48
2018-11-14T22:10:22.675Z,9.51
2018-11-14T22:12:52.094Z,9.41
2018-11-14T22:15:22.376Z,9.48
2018-11-14T22:17:51.603Z,9.50
2018-11-14T22:20:21.875Z,9.34
2018-11-14T22:22:51.442Z,9.39
2018-11-14T22:25:21.386Z,9.39
2018-11-14T22:27:50.352Z,9.41
2018-11-14T22:30:22.689Z,9.31
2018-11-14T22:32:51.500Z,9.05
2018-11-14T22:35:21.589Z,9.16
2018-11-14T22:37:51.198Z,9.00
2018-11-14T22:40:21.489Z,8.99
2018-11-14T22:42:51.178Z,8.93
2018-11-14T22:45:22.239Z,9.23
2018-11-14T22:47:51.253Z,9.24
2018-11-14T22:50:21.790Z,9.23
2018-11-14T22:52:51.019Z,9.27
2018-11-14T22:55:20.786Z,9.26
2018-11-14T22:57:50.211Z,9.32
2018-11-14T23:00:22.708Z,9.34
2018-11-14T23:02:52.640Z,9.22
2018-11-14T23:05:22.155Z,9.33
2018-11-14T23:07:52.150Z,9.23
2018-11-14T23:10:22.063Z,9.17
2018-11-14T23:12:51.458Z,9.17
2018-11-14T23:15:21.063Z,9.24
2018-11-14T23:17:49.971Z,9.24
2018-11-14T23:20:19.649Z,9.19
2018-11-14T23:22:48.923Z,9.27
2018-11-14T23:25:18.845Z,9.28
2018-11-14T23:27:50.197Z,9.07
2018-11-14T23:30:19.803Z,9.08
2018-11-14T23:32:50.146Z,9.12
2018-11-14T23:35:26.650Z,9.16
2018-11-14T23:37:57.639Z,9.09
2018-11-14T23:40:27.150Z,9.11
2018-11-14T23:42:55.982Z,8.98
2018-11-14T23:45:25.590Z,8.99
2018-11-14T23:47:54.342Z,9.03
2018-11-14T23:50:25.351Z,9.15
2018-11-14T23:52:55.032Z,9.24
2018-11-14T23:55:24.314Z,9.01
2018-11-14T23:57:53.031Z,8.95
